createdAt,value
2022-07-29T00:02:18.506Z,18.25
2022-07-29T00:04:47.354Z,18.28
2022-07-29T00:07:16.047Z,18.19
2022-07-29T00:09:52.139Z,18.15
2022-07-29T00:12:25.598Z,18.20
2022-07-29T00:14:57.194Z,18.17
2022-07-29T00:17:27.027Z,18.14
2022-07-29T00:19:56.096Z,18.09
2022-07-29T00:22:25.503Z,18.06
2022-07-29T00:24:54.384Z,17.99
2022-07-29T00:27:24.893Z,18.01
2022-07-29T00:29:53.826Z,17.91
2022-07-29T00:32:22.663Z,17.95
2022-07-29T00:35:15.591Z,18.12
2022-07-29T00:37:44.583Z,17.92
2022-07-29T00:40:13.844Z,17.89
2022-07-29T00:45:39.251Z,17.82
2022-07-29T00:48:09.905Z,17.45
2022-07-29T00:50:41.081Z,17.36
2022-07-29T00:53:10.552Z,17.27
2022-07-29T00:55:39.982Z,17.12
2022-07-29T00:58:11.083Z,17.14
2022-07-29T01:00:42.017Z,17.03
2022-07-29T01:03:16.836Z,17.17
2022-07-29T01:05:51.468Z,17.08
2022-07-29T01:08:23.174Z,17.03
2022-07-29T01:10:53.843Z,17.06
2022-07-29T01:13:25.791Z,16.96
2022-07-29T01:15:58.768Z,17.00
2022-07-29T01:18:34.600Z,17.04
2022-07-29T01:21:28.045Z,17.11
2022-07-29T01:24:22.502Z,17.10
2022-07-29T01:26:59.536Z,16.97
2022-07-29T01:29:38.539Z,16.93
2022-07-29T01:32:18.064Z,16.92
2022-07-29T01:35:01.201Z,16.87
2022-07-29T01:37:38.843Z,16.81
2022-07-29T01:40:14.151Z,16.77
2022-07-29T01:42:47.332Z,16.75
2022-07-29T01:45:21.073Z,16.80
2022-07-29T01:47:59.059Z,16.80
2022-07-29T01:50:34.046Z,16.76
2022-07-29T01:53:07.898Z,16.71
2022-07-29T01:55:42.466Z,16.76
2022-07-29T01:58:15.227Z,16.82
2022-07-29T02:00:47.889Z,16.79
2022-07-29T02:03:19.125Z,16.73
2022-07-29T02:05:51.003Z,16.71
2022-07-29T02:08:21.628Z,16.67
2022-07-29T02:10:53.045Z,16.68
2022-07-29T02:13:25.106Z,16.65
2022-07-29T02:15:56.647Z,16.66
2022-07-29T02:18:27.720Z,16.64
2022-07-29T02:21:01.831Z,16.63
2022-07-29T02:23:33.166Z,16.60
2022-07-29T02:26:22.918Z,16.60
2022-07-29T02:28:56.623Z,16.66
2022-07-29T02:31:29.038Z,16.61
2022-07-29T02:33:59.798Z,16.54
2022-07-29T02:36:29.661Z,16.59
2022-07-29T02:39:01.951Z,16.66
2022-07-29T02:41:33.447Z,16.69
2022-07-29T02:44:05.904Z,17.19
2022-07-29T02:46:39.596Z,16.83
2022-07-29T02:49:15.684Z,16.80
2022-07-29T02:51:48.227Z,16.81
2022-07-29T02:54:27.139Z,16.94
2022-07-29T02:56:57.771Z,16.88
2022-07-29T02:59:30.036Z,16.94
2022-07-29T03:02:02.936Z,16.99
2022-07-29T03:04:35.591Z,16.99
2022-07-29T03:07:06.178Z,17.11
2022-07-29T03:09:36.607Z,17.14
2022-07-29T03:12:07.558Z,17.24
2022-07-29T03:14:37.595Z,17.36
2022-07-29T03:17:11.503Z,17.45
2022-07-29T03:19:41.725Z,17.34
2022-07-29T03:22:11.685Z,17.37
2022-07-29T03:24:41.007Z,17.39
2022-07-29T03:27:10.369Z,17.24
2022-07-29T03:29:39.538Z,17.33
2022-07-29T03:32:10.673Z,17.40
2022-07-29T03:34:40.122Z,17.40
2022-07-29T03:37:09.559Z,17.36
2022-07-29T03:39:43.697Z,17.52
2022-07-29T03:42:16.294Z,17.58
2022-07-29T03:44:50.001Z,17.66
2022-07-29T03:47:43.430Z,17.75
2022-07-29T03:50:18.194Z,17.82
2022-07-29T03:52:46.970Z,17.86
2022-07-29T03:55:16.577Z,17.85
2022-07-29T03:57:48.152Z,17.89
2022-07-29T04:00:17.847Z,18.45
2022-07-29T04:02:50.121Z,18.07
2022-07-29T04:05:20.109Z,17.99
2022-07-29T04:07:50.227Z,18.02
2022-07-29T04:10:26.895Z,18.05
2022-07-29T04:13:02.036Z,18.13
2022-07-29T04:15:31.963Z,18.22
2022-07-29T04:18:03.153Z,18.14
2022-07-29T04:20:33.745Z,18.20
2022-07-29T04:23:02.884Z,18.09
2022-07-29T04:25:32.247Z,18.11
2022-07-29T04:28:04.311Z,18.19
2022-07-29T04:30:34.844Z,18.23
2022-07-29T04:33:06.854Z,18.38
2022-07-29T04:35:43.616Z,18.33
2022-07-29T04:38:19.213Z,18.43
2022-07-29T04:40:49.736Z,18.50
2022-07-29T04:43:22.672Z,18.68
2022-07-29T04:45:52.791Z,18.81
2022-07-29T04:48:28.535Z,19.18
2022-07-29T04:50:59.201Z,19.48
2022-07-29T04:53:28.927Z,19.81
2022-07-29T04:55:58.430Z,19.93
2022-07-29T04:58:27.529Z,19.89
2022-07-29T05:00:56.854Z,19.78
2022-07-29T05:03:27.257Z,19.78
2022-07-29T05:05:57.245Z,19.80
2022-07-29T05:08:26.244Z,19.90
2022-07-29T05:10:55.437Z,20.11
2022-07-29T05:13:24.692Z,20.24
2022-07-29T05:15:54.089Z,20.42
2022-07-29T05:18:26.180Z,20.53
2022-07-29T05:20:57.080Z,20.64
2022-07-29T05:23:26.133Z,20.63
2022-07-29T05:25:55.292Z,20.62
2022-07-29T05:28:24.459Z,20.78
2022-07-29T05:30:53.564Z,20.88
2022-07-29T05:33:35.770Z,20.93
2022-07-29T05:36:08.641Z,20.90
2022-07-29T05:38:38.880Z,20.98
2022-07-29T05:41:08.017Z,20.96
2022-07-29T05:43:37.296Z,20.95
2022-07-29T05:46:06.357Z,20.88
2022-07-29T05:48:35.197Z,20.80
2022-07-29T05:51:04.239Z,20.79
2022-07-29T05:53:34.925Z,20.38
2022-07-29T05:56:06.854Z,20.25
2022-07-29T05:58:36.021Z,20.42
2022-07-29T06:01:06.114Z,20.83
2022-07-29T06:03:35.882Z,21.16
2022-07-29T06:06:04.808Z,21.69
2022-07-29T06:08:35.147Z,22.02
2022-07-29T06:11:04.229Z,21.84
2022-07-29T06:13:33.691Z,21.54
2022-07-29T06:16:02.833Z,21.89
2022-07-29T06:18:31.615Z,21.66
2022-07-29T06:21:00.619Z,21.90
2022-07-29T06:23:29.838Z,21.72
2022-07-29T06:26:00.923Z,21.55
2022-07-29T06:28:29.821Z,21.53
2022-07-29T06:30:58.590Z,21.75
2022-07-29T06:33:27.564Z,21.96
2022-07-29T06:35:56.516Z,22.14
2022-07-29T06:38:31.071Z,21.95
2022-07-29T06:41:05.041Z,22.20
2022-07-29T06:43:35.235Z,23.08
2022-07-29T06:46:06.388Z,22.95
2022-07-29T06:48:37.351Z,22.97
2022-07-29T06:51:07.317Z,22.94
2022-07-29T06:53:37.017Z,22.75
2022-07-29T06:56:09.586Z,23.26
2022-07-29T06:58:39.191Z,24.44
2022-07-29T07:01:09.201Z,25.21
2022-07-29T07:03:38.426Z,25.54
2022-07-29T07:06:09.817Z,25.13
2022-07-29T07:08:42.252Z,26.05
2022-07-29T07:11:12.863Z,26.90
2022-07-29T07:13:41.784Z,25.84
2022-07-29T07:16:10.967Z,24.75
2022-07-29T07:18:39.894Z,24.73
2022-07-29T07:21:09.083Z,26.01
2022-07-29T07:23:38.393Z,26.07
2022-07-29T07:26:08.139Z,26.06
2022-07-29T07:28:39.110Z,26.74
2022-07-29T07:31:08.393Z,27.29
2022-07-29T07:33:44.057Z,28.12
2022-07-29T07:36:14.232Z,28.38
2022-07-29T07:38:43.574Z,27.43
2022-07-29T07:41:12.639Z,25.30
2022-07-29T07:43:50.272Z,26.09
2022-07-29T07:46:20.275Z,27.49
2022-07-29T07:48:54.736Z,28.50
2022-07-29T07:51:24.935Z,27.68
2022-07-29T07:53:54.334Z,26.76
2022-07-29T07:56:24.966Z,26.39
2022-07-29T07:58:55.286Z,28.04
2022-07-29T08:01:24.644Z,28.84
2022-07-29T08:03:53.524Z,27.79
2022-07-29T08:06:22.672Z,26.63
2022-07-29T08:08:51.959Z,25.09
2022-07-29T08:11:22.559Z,24.58
2022-07-29T08:13:51.762Z,23.97
2022-07-29T08:16:22.206Z,24.49
2022-07-29T08:18:51.443Z,26.70
2022-07-29T08:21:21.357Z,28.31
2022-07-29T08:24:00.777Z,29.00
2022-07-29T08:26:32.191Z,28.38
2022-07-29T08:29:01.751Z,26.88
2022-07-29T08:31:33.484Z,26.09
2022-07-29T08:34:03.654Z,25.48
2022-07-29T08:36:33.790Z,26.77
2022-07-29T08:39:03.968Z,26.86
2022-07-29T08:41:33.924Z,27.02
2022-07-29T08:44:03.293Z,26.40
2022-07-29T08:46:34.102Z,26.35
2022-07-29T08:49:04.908Z,28.13
2022-07-29T08:51:49.349Z,28.75
2022-07-29T08:54:20.582Z,29.51
2022-07-29T08:56:51.750Z,29.91
2022-07-29T08:59:27.931Z,29.19
2022-07-29T09:02:03.616Z,28.19
2022-07-29T09:04:37.222Z,29.46
2022-07-29T09:07:09.277Z,30.06
2022-07-29T09:09:41.086Z,30.49
2022-07-29T09:12:28.869Z,31.46
2022-07-29T09:14:59.483Z,31.32
2022-07-29T09:17:46.282Z,31.56
2022-07-29T09:20:19.543Z,31.25
2022-07-29T09:22:50.536Z,32.67
2022-07-29T09:25:34.926Z,33.11
2022-07-29T09:28:10.853Z,32.87
2022-07-29T09:30:53.462Z,31.83
2022-07-29T09:33:24.954Z,32.45
2022-07-29T09:36:02.025Z,30.81
2022-07-29T09:38:31.538Z,29.16
2022-07-29T09:41:05.365Z,30.08
2022-07-29T09:43:35.569Z,31.41
2022-07-29T09:46:13.992Z,32.32
2022-07-29T09:48:45.149Z,31.69
2022-07-29T09:51:26.910Z,31.70
2022-07-29T09:53:59.189Z,31.88
2022-07-29T09:56:41.773Z,33.41
2022-07-29T09:59:13.323Z,33.71
2022-07-29T10:01:42.547Z,33.11
2022-07-29T10:04:13.241Z,33.62
2022-07-29T10:07:04.815Z,34.84
2022-07-29T10:09:34.633Z,34.38
2022-07-29T10:12:14.601Z,34.30
2022-07-29T10:14:44.744Z,33.50
2022-07-29T10:17:13.926Z,33.11
2022-07-29T10:19:44.955Z,31.63
2022-07-29T10:22:14.970Z,32.71
2022-07-29T10:24:43.987Z,32.93
2022-07-29T10:27:13.674Z,33.97
2022-07-29T10:29:42.906Z,34.08
2022-07-29T10:32:24.842Z,34.40
2022-07-29T10:35:09.149Z,34.00
2022-07-29T10:37:55.256Z,33.90
2022-07-29T10:40:48.495Z,34.53
2022-07-29T10:43:24.837Z,34.32
2022-07-29T10:46:02.698Z,31.27
2022-07-29T10:48:31.684Z,28.99
2022-07-29T10:51:05.312Z,27.95
2022-07-29T10:53:51.048Z,28.20
2022-07-29T10:56:28.201Z,27.92
2022-07-29T10:59:32.429Z,27.85
2022-07-29T11:02:41.061Z,26.82
2022-07-29T11:05:15.085Z,26.56
2022-07-29T11:08:27.899Z,27.16
2022-07-29T11:11:44.045Z,27.91
2022-07-29T11:14:16.783Z,28.95
2022-07-29T11:17:09.252Z,28.46
2022-07-29T11:19:49.260Z,27.87
2022-07-29T11:22:35.607Z,30.04
2022-07-29T11:25:18.208Z,29.29
2022-07-29T11:27:47.324Z,28.89
2022-07-29T11:30:17.097Z,28.60
2022-07-29T11:32:48.709Z,29.76
2022-07-29T11:35:37.164Z,29.56
2022-07-29T11:38:28.663Z,29.28
2022-07-29T11:41:24.199Z,28.58
2022-07-29T11:43:56.175Z,28.14
2022-07-29T11:46:47.988Z,27.94
2022-07-29T11:49:32.158Z,26.82
2022-07-29T11:52:04.218Z,26.38
2022-07-29T11:54:57.268Z,25.97
2022-07-29T11:57:36.684Z,26.81
2022-07-29T12:00:12.318Z,25.74
2022-07-29T12:02:43.541Z,25.36
2022-07-29T12:05:35.933Z,25.38
2022-07-29T12:08:15.468Z,25.79
2022-07-29T12:10:47.068Z,25.62
2022-07-29T12:13:20.959Z,25.52
2022-07-29T12:15:59.988Z,25.59
2022-07-29T12:18:29.444Z,25.51
2022-07-29T12:21:05.126Z,25.80
2022-07-29T12:23:35.558Z,26.30
2022-07-29T12:26:07.411Z,27.51
2022-07-29T12:28:41.541Z,27.20
2022-07-29T12:31:44.169Z,27.31
2022-07-29T12:34:05.322Z,27.53
2022-07-29T12:36:35.521Z,27.03
2022-07-29T12:39:04.975Z,26.61
2022-07-29T12:41:34.040Z,26.46
2022-07-29T12:44:04.528Z,26.32
2022-07-29T12:46:34.114Z,25.95
2022-07-29T12:49:04.103Z,27.02
2022-07-29T12:51:35.284Z,27.67
2022-07-29T12:54:06.627Z,27.25
2022-07-29T12:56:44.383Z,26.92
2022-07-29T12:59:20.376Z,26.74
2022-07-29T13:01:50.527Z,26.37
2022-07-29T13:04:29.889Z,26.42
2022-07-29T13:07:04.689Z,26.41
2022-07-29T13:09:41.525Z,26.30
2022-07-29T13:12:12.472Z,26.02
2022-07-29T13:14:44.442Z,26.59
2022-07-29T13:17:14.687Z,27.35
2022-07-29T13:19:46.146Z,27.80
2022-07-29T13:22:16.802Z,27.60
2022-07-29T13:24:52.995Z,27.60
2022-07-29T13:27:24.901Z,27.44
2022-07-29T13:29:57.789Z,27.40
2022-07-29T13:32:29.908Z,27.26
2022-07-29T13:34:59.217Z,27.18
2022-07-29T13:37:30.801Z,27.11
2022-07-29T13:40:00.563Z,26.60
2022-07-29T13:42:29.612Z,26.65
2022-07-29T13:45:00.289Z,26.39
2022-07-29T13:47:32.759Z,26.04
2022-07-29T13:50:02.477Z,25.64
2022-07-29T13:52:32.910Z,25.39
2022-07-29T13:55:01.912Z,25.26
2022-07-29T13:57:32.329Z,25.58
2022-07-29T14:00:02.532Z,25.54
2022-07-29T14:02:38.828Z,25.76
2022-07-29T14:05:08.979Z,26.24
2022-07-29T14:07:38.088Z,26.37
2022-07-29T14:10:08.470Z,26.50
2022-07-29T14:12:37.574Z,26.44
2022-07-29T14:15:09.836Z,26.05
2022-07-29T14:17:39.185Z,25.70
2022-07-29T14:20:09.023Z,25.64
2022-07-29T14:22:42.419Z,25.96
2022-07-29T14:25:14.951Z,26.49
2022-07-29T14:27:45.335Z,26.86
2022-07-29T14:30:16.502Z,26.85
2022-07-29T14:32:46.054Z,26.82
2022-07-29T14:35:14.979Z,26.74
2022-07-29T14:37:44.288Z,26.46
2022-07-29T14:40:14.173Z,26.30
2022-07-29T14:42:43.046Z,26.37
2022-07-29T14:45:12.504Z,26.25
2022-07-29T14:47:42.797Z,26.29
2022-07-29T14:50:12.626Z,26.35
2022-07-29T14:52:41.904Z,26.26
2022-07-29T14:55:16.528Z,26.04
2022-07-29T14:57:49.847Z,25.86
2022-07-29T15:00:19.414Z,25.67
2022-07-29T15:03:01.933Z,25.56
2022-07-29T15:05:32.265Z,25.59
2022-07-29T15:08:01.892Z,25.77
2022-07-29T15:10:30.924Z,25.92
2022-07-29T15:13:00.283Z,25.66
2022-07-29T15:15:29.211Z,25.58
2022-07-29T15:17:59.450Z,25.80
2022-07-29T15:20:28.492Z,25.77
2022-07-29T15:22:57.972Z,25.71
2022-07-29T15:25:28.563Z,25.57
2022-07-29T15:28:01.197Z,25.13
2022-07-29T15:30:33.214Z,24.87
2022-07-29T15:33:05.790Z,24.78
2022-07-29T15:35:39.902Z,24.59
2022-07-29T15:38:09.847Z,24.54
2022-07-29T15:40:40.191Z,24.65
2022-07-29T15:43:09.822Z,24.74
2022-07-29T15:45:40.561Z,24.72
2022-07-29T15:48:14.552Z,25.02
2022-07-29T15:50:47.090Z,25.01
2022-07-29T15:53:16.497Z,25.13
2022-07-29T15:55:46.594Z,25.24
2022-07-29T15:58:15.802Z,25.21
2022-07-29T16:00:44.802Z,25.06
2022-07-29T16:03:15.396Z,24.54
2022-07-29T16:05:44.477Z,24.08
2022-07-29T16:08:13.439Z,23.89
2022-07-29T16:10:42.937Z,23.75
2022-07-29T16:13:17.142Z,23.52
2022-07-29T16:16:02.706Z,23.31
2022-07-29T16:18:34.906Z,23.25
2022-07-29T16:21:04.367Z,23.08
2022-07-29T16:23:33.699Z,22.82
2022-07-29T16:26:02.695Z,22.69
2022-07-29T16:28:32.010Z,22.61
2022-07-29T16:31:00.939Z,22.58
2022-07-29T16:33:54.407Z,22.69
2022-07-29T16:36:21.361Z,22.77
2022-07-29T16:38:51.029Z,22.71
2022-07-29T16:41:26.334Z,22.77
2022-07-29T16:43:59.614Z,22.80
2022-07-29T16:46:56.216Z,22.74
2022-07-29T16:49:39.790Z,22.65
2022-07-29T16:52:13.595Z,22.49
2022-07-29T16:54:45.761Z,22.42
2022-07-29T16:57:28.988Z,22.33
2022-07-29T17:00:08.975Z,22.24
2022-07-29T17:02:39.099Z,22.17
2022-07-29T17:05:10.798Z,22.20
2022-07-29T17:07:41.801Z,22.16
2022-07-29T17:10:12.183Z,22.21
2022-07-29T17:12:42.594Z,22.41
2022-07-29T17:15:13.520Z,22.47
2022-07-29T17:17:55.024Z,22.51
2022-07-29T17:20:26.852Z,22.43
2022-07-29T17:22:57.283Z,22.42
2022-07-29T17:25:26.353Z,22.33
2022-07-29T17:28:00.554Z,22.25
2022-07-29T17:30:30.428Z,22.19
2022-07-29T17:32:59.579Z,22.07
2022-07-29T17:35:46.190Z,21.87
2022-07-29T17:38:16.697Z,21.79
2022-07-29T17:40:45.701Z,21.64
2022-07-29T17:43:14.698Z,21.56
2022-07-29T17:45:48.852Z,21.53
2022-07-29T17:48:20.795Z,21.46
2022-07-29T17:50:50.653Z,21.43
2022-07-29T17:53:21.445Z,21.41
2022-07-29T17:55:50.877Z,21.38
2022-07-29T18:01:06.835Z,21.35
2022-07-29T18:03:36.080Z,21.26
2022-07-29T18:06:07.285Z,21.25
2022-07-29T18:08:39.661Z,21.25
2022-07-29T18:11:08.788Z,21.17
2022-07-29T18:13:43.744Z,21.11
2022-07-29T18:16:13.021Z,21.03
2022-07-29T18:18:42.281Z,21.01
2022-07-29T18:21:11.189Z,20.92
2022-07-29T18:23:41.962Z,20.96
2022-07-29T18:26:11.322Z,20.88
2022-07-29T18:28:40.048Z,20.70
2022-07-29T18:31:09.064Z,20.70
2022-07-29T18:33:39.699Z,20.69
2022-07-29T18:36:11.556Z,20.66
2022-07-29T18:38:43.011Z,20.51
2022-07-29T18:41:11.916Z,20.54
2022-07-29T18:43:41.140Z,20.48
2022-07-29T18:46:10.530Z,20.44
2022-07-29T18:48:40.748Z,20.39
2022-07-29T18:51:10.610Z,20.85
2022-07-29T18:53:39.354Z,20.28
2022-07-29T18:56:09.592Z,20.29
2022-07-29T18:58:39.035Z,20.19
2022-07-29T19:01:07.917Z,20.24
2022-07-29T19:03:37.083Z,20.13
2022-07-29T19:06:10.970Z,20.17
2022-07-29T19:08:40.205Z,20.11
2022-07-29T19:11:13.136Z,20.09
2022-07-29T19:13:42.741Z,20.07
2022-07-29T19:16:14.288Z,20.08
2022-07-29T19:18:44.959Z,20.03
2022-07-29T19:21:14.096Z,20.02
2022-07-29T19:24:04.175Z,20.02
2022-07-29T19:26:36.790Z,20.05
2022-07-29T19:29:06.316Z,19.95
2022-07-29T19:31:35.405Z,19.92
2022-07-29T19:34:04.612Z,19.92
2022-07-29T19:36:36.724Z,19.87
2022-07-29T19:39:06.436Z,19.85
2022-07-29T19:41:36.902Z,19.87
2022-07-29T19:44:07.040Z,19.88
2022-07-29T19:46:35.816Z,19.78
2022-07-29T19:49:06.811Z,19.79
2022-07-29T19:51:36.105Z,19.82
2022-07-29T19:54:06.246Z,19.73
2022-07-29T19:56:38.836Z,19.75
2022-07-29T19:59:11.141Z,19.74
2022-07-29T20:01:41.481Z,19.70
2022-07-29T20:04:10.870Z,19.68
2022-07-29T20:06:39.617Z,19.65
2022-07-29T20:09:08.449Z,19.63
2022-07-29T20:11:50.517Z,19.66
2022-07-29T20:14:19.286Z,19.56
2022-07-29T20:16:48.319Z,19.54
2022-07-29T20:19:17.282Z,19.54
2022-07-29T20:21:46.261Z,19.52
2022-07-29T20:24:15.320Z,19.52
2022-07-29T20:26:44.327Z,19.51
2022-07-29T20:29:14.833Z,19.50
2022-07-29T20:31:44.201Z,19.43
2022-07-29T20:34:14.556Z,19.42
2022-07-29T20:36:43.346Z,19.38
2022-07-29T20:39:12.527Z,19.39
2022-07-29T20:41:41.727Z,19.34
2022-07-29T20:44:10.930Z,19.32
2022-07-29T20:46:41.492Z,19.31
2022-07-29T20:49:10.428Z,19.31
2022-07-29T20:51:43.310Z,19.26
2022-07-29T20:54:12.869Z,19.25
2022-07-29T20:56:42.031Z,19.24
2022-07-29T20:59:11.506Z,19.27
2022-07-29T21:01:41.834Z,19.34
2022-07-29T21:04:10.860Z,19.31
2022-07-29T21:06:39.788Z,19.32
2022-07-29T21:09:08.594Z,19.33
2022-07-29T21:11:44.171Z,19.30
2022-07-29T21:14:22.492Z,19.29
2022-07-29T21:16:52.593Z,19.28
2022-07-29T21:19:21.579Z,19.15
2022-07-29T21:21:50.489Z,19.07
2022-07-29T21:24:19.241Z,18.92
2022-07-29T21:27:11.044Z,18.93
2022-07-29T21:29:36.151Z,18.89
2022-07-29T21:32:07.352Z,18.90
2022-07-29T21:34:36.283Z,18.84
2022-07-29T21:37:05.247Z,18.73
2022-07-29T21:39:36.200Z,18.65
2022-07-29T21:42:07.524Z,18.62
2022-07-29T21:44:41.186Z,18.62
2022-07-29T21:47:12.067Z,18.58
2022-07-29T21:49:40.893Z,18.53
2022-07-29T21:52:10.152Z,18.49
2022-07-29T21:54:40.267Z,18.47
2022-07-29T21:57:09.511Z,18.41
2022-07-29T21:59:38.405Z,18.37
2022-07-29T22:02:07.601Z,18.36
2022-07-29T22:04:38.848Z,18.38
2022-07-29T22:07:07.973Z,18.32
2022-07-29T22:09:36.775Z,18.28
2022-07-29T22:12:06.146Z,18.22
2022-07-29T22:14:34.888Z,18.18
2022-07-29T22:17:03.885Z,18.18
2022-07-29T22:19:33.477Z,18.14
2022-07-29T22:22:03.882Z,18.13
2022-07-29T22:24:32.604Z,18.06
2022-07-29T22:27:01.705Z,18.02
2022-07-29T22:29:30.808Z,18.02
2022-07-29T22:31:59.713Z,17.96
2022-07-29T22:34:37.139Z,17.89
2022-07-29T22:37:08.519Z,17.87
2022-07-29T22:39:37.419Z,17.78
2022-07-29T22:42:06.515Z,17.77
2022-07-29T22:44:35.403Z,17.72
2022-07-29T22:47:05.740Z,17.66
2022-07-29T22:49:34.700Z,17.59
2022-07-29T22:52:03.561Z,17.57
2022-07-29T22:54:33.848Z,17.55
2022-07-29T22:57:03.414Z,17.49
2022-07-29T22:59:32.437Z,17.46
2022-07-29T23:02:01.460Z,17.45
2022-07-29T23:04:30.441Z,17.43
2022-07-29T23:06:59.439Z,17.42
2022-07-29T23:09:28.403Z,17.43
2022-07-29T23:11:58.606Z,17.41
2022-07-29T23:14:28.105Z,17.33
2022-07-29T23:16:57.335Z,17.35
2022-07-29T23:19:27.567Z,17.33
2022-07-29T23:21:56.610Z,17.30
2022-07-29T23:24:25.357Z,17.28
2022-07-29T23:26:54.502Z,17.18
2022-07-29T23:29:24.675Z,17.24
2022-07-29T23:31:53.427Z,17.16
2022-07-29T23:34:22.225Z,17.13
2022-07-29T23:36:50.806Z,17.10
2022-07-29T23:39:19.540Z,17.08
2022-07-29T23:41:48.515Z,17.07
2022-07-29T23:44:17.470Z,17.03
2022-07-29T23:46:47.765Z,17.07
2022-07-29T23:49:16.580Z,16.99
2022-07-29T23:51:45.561Z,17.00
2022-07-29T23:54:14.453Z,16.96
2022-07-29T23:56:43.302Z,16.90
2022-07-29T23:59:12.065Z,16.87
